createdAt,value
2024-04-14T00:02:16.981Z,100861.75
2024-04-14T00:04:47.332Z,100864.97
2024-04-14T00:07:15.027Z,100869.75
2024-04-14T00:09:42.493Z,100866.13
2024-04-14T00:12:10.154Z,100865.75
2024-04-14T00:14:37.681Z,100860.94
2024-04-14T00:17:05.237Z,100863.00
2024-04-14T00:19:32.845Z,100864.31
2024-04-14T00:22:01.037Z,100857.00
2024-04-14T00:24:28.623Z,100865.75
2024-04-14T00:26:56.267Z,100860.13
2024-04-14T00:29:24.000Z,100860.38
2024-04-14T00:31:51.598Z,100853.56
2024-04-14T00:34:19.105Z,100862.97
2024-04-14T00:36:46.708Z,100855.34
2024-04-14T00:39:14.217Z,100861.09
2024-04-14T00:41:41.720Z,100856.50
2024-04-14T00:44:09.375Z,100863.81
2024-04-14T00:46:37.430Z,100860.81
2024-04-14T00:49:05.555Z,100853.66
2024-04-14T00:51:34.045Z,100860.88
2024-04-14T00:54:01.750Z,100855.06
2024-04-14T00:56:29.675Z,100860.03
2024-04-14T00:58:57.753Z,100862.19
2024-04-14T01:01:25.373Z,100858.63
2024-04-14T01:03:53.089Z,100863.00
2024-04-14T01:06:20.634Z,100858.03
2024-04-14T01:08:48.523Z,100856.19
2024-04-14T01:11:16.147Z,100851.75
2024-04-14T01:13:48.032Z,100852.13
2024-04-14T01:16:15.592Z,100854.94
2024-04-14T01:18:43.167Z,100855.16
2024-04-14T01:21:11.034Z,100854.78
2024-04-14T01:23:39.039Z,100859.88
2024-04-14T01:26:06.595Z,100853.56
2024-04-14T01:28:34.127Z,100848.06
2024-04-14T01:31:01.974Z,100850.66
2024-04-14T01:33:29.526Z,100861.25
2024-04-14T01:35:57.083Z,100855.19
2024-04-14T01:38:26.561Z,100862.16
2024-04-14T01:40:54.468Z,100853.56
2024-04-14T01:43:22.052Z,100862.03
2024-04-14T01:45:49.736Z,100867.84
2024-04-14T01:48:17.487Z,100854.91
2024-04-14T01:50:44.980Z,100867.56
2024-04-14T01:53:12.662Z,100860.78
2024-04-14T01:55:44.212Z,100869.94
2024-04-14T01:58:11.789Z,100865.16
2024-04-14T02:00:39.353Z,100873.34
2024-04-14T02:03:07.029Z,100865.22
2024-04-14T02:05:34.567Z,100861.44
2024-04-14T02:08:02.235Z,100869.88
2024-04-14T02:10:29.751Z,100860.44
2024-04-14T02:12:57.431Z,100862.25
2024-04-14T02:15:25.192Z,100858.88
2024-04-14T02:17:52.914Z,100862.91
2024-04-14T02:20:20.569Z,100865.38
2024-04-14T02:22:48.152Z,100854.53
2024-04-14T02:25:15.736Z,100863.09
2024-04-14T02:27:43.272Z,100874.94
2024-04-14T02:30:11.093Z,100877.81
2024-04-14T02:32:38.722Z,100879.00
2024-04-14T02:35:06.472Z,100879.28
2024-04-14T02:37:34.179Z,100867.09
2024-04-14T02:40:01.874Z,100879.31
2024-04-14T02:42:35.491Z,100872.47
2024-04-14T02:45:03.327Z,100881.94
2024-04-14T02:47:30.967Z,100884.97
2024-04-14T02:49:58.509Z,100886.88
2024-04-14T02:52:26.060Z,100884.75
2024-04-14T02:54:53.521Z,100890.63
2024-04-14T02:57:20.978Z,100884.19
2024-04-14T02:59:48.538Z,100899.25
2024-04-14T03:02:16.127Z,100894.81
2024-04-14T03:04:43.666Z,100894.38
2024-04-14T03:07:11.347Z,100891.66
2024-04-14T03:09:38.922Z,100885.56
2024-04-14T03:12:07.260Z,100894.94
2024-04-14T03:14:34.782Z,100900.38
2024-04-14T03:17:02.416Z,100906.81
2024-04-14T03:19:29.871Z,100913.38
2024-04-14T03:21:57.478Z,100909.66
2024-04-14T03:24:25.082Z,100915.41
2024-04-14T03:26:53.486Z,100904.50
2024-04-14T03:29:21.993Z,100904.22
2024-04-14T03:31:49.610Z,100910.97
2024-04-14T03:34:17.087Z,100908.03
2024-04-14T03:36:44.570Z,100909.16
2024-04-14T03:39:12.050Z,100905.41
2024-04-14T03:41:39.557Z,100917.41
2024-04-14T03:44:07.076Z,100915.66
2024-04-14T03:46:34.574Z,100916.00
2024-04-14T03:49:02.191Z,100921.97
2024-04-14T03:51:29.718Z,100920.88
2024-04-14T03:53:57.268Z,100910.97
2024-04-14T03:56:24.707Z,100919.47
2024-04-14T03:58:52.246Z,100924.84
2024-04-14T04:01:19.964Z,100924.25
2024-04-14T04:03:47.955Z,100926.28
2024-04-14T04:06:15.582Z,100915.19
2024-04-14T04:08:43.114Z,100929.69
2024-04-14T04:11:10.689Z,100924.91
2024-04-14T04:13:38.101Z,100930.50
2024-04-14T04:16:07.720Z,100928.09
2024-04-14T04:18:36.471Z,100931.63
2024-04-14T04:21:05.763Z,100930.75
2024-04-14T04:23:33.434Z,100925.91
2024-04-14T04:26:02.151Z,100925.69
2024-04-14T04:28:29.874Z,100934.72
2024-04-14T04:30:57.969Z,100927.06
2024-04-14T04:33:25.829Z,100937.69
2024-04-14T04:35:54.085Z,100953.03
2024-04-14T04:38:25.795Z,100956.75
2024-04-14T04:40:54.266Z,100956.75
2024-04-14T04:43:24.271Z,100949.72
2024-04-14T04:45:52.271Z,100969.06
2024-04-14T04:48:19.976Z,100974.38
2024-04-14T04:50:47.981Z,100975.66
2024-04-14T04:53:15.675Z,100977.88
2024-04-14T04:55:43.948Z,100969.38
2024-04-14T04:58:12.285Z,100976.22
2024-04-14T05:00:39.788Z,100968.84
2024-04-14T05:03:07.479Z,100975.53
2024-04-14T05:05:35.141Z,100967.66
2024-04-14T05:08:03.198Z,100974.34
2024-04-14T05:10:32.407Z,100970.28
2024-04-14T05:13:00.508Z,100978.59
2024-04-14T05:15:28.398Z,100972.44
2024-04-14T05:17:56.387Z,100975.88
2024-04-14T05:20:24.367Z,100976.72
2024-04-14T05:22:51.827Z,100971.03
2024-04-14T05:25:19.369Z,100972.88
2024-04-14T05:27:47.005Z,100971.72
2024-04-14T05:30:14.648Z,100972.06
2024-04-14T05:32:42.140Z,100977.25
2024-04-14T05:35:09.869Z,100972.13
2024-04-14T05:37:37.400Z,100975.75
2024-04-14T05:40:05.353Z,100972.41
2024-04-14T05:42:33.046Z,100974.03
2024-04-14T05:45:00.795Z,100966.78
2024-04-14T05:47:28.344Z,100970.47
2024-04-14T05:49:56.650Z,100965.25
2024-04-14T05:52:26.134Z,100955.28
2024-04-14T05:54:54.565Z,100955.41
2024-04-14T05:57:22.094Z,100952.03
2024-04-14T05:59:49.641Z,100951.72
2024-04-14T06:02:17.133Z,100952.09
2024-04-14T06:04:44.655Z,100948.22
2024-04-14T06:07:12.197Z,100945.66
2024-04-14T06:09:39.839Z,100941.59
2024-04-14T06:12:07.755Z,100950.75
2024-04-14T06:14:35.237Z,100948.25
2024-04-14T06:17:02.863Z,100945.63
2024-04-14T06:19:30.458Z,100941.09
2024-04-14T06:21:58.083Z,100947.69
2024-04-14T06:24:25.693Z,100946.53
2024-04-14T06:26:53.290Z,100938.69
2024-04-14T06:29:20.815Z,100930.38
2024-04-14T06:31:48.379Z,100919.88
2024-04-14T06:34:15.933Z,100931.78
2024-04-14T06:36:43.430Z,100925.31
2024-04-14T06:39:11.089Z,100920.97
2024-04-14T06:41:38.545Z,100931.81
2024-04-14T06:44:05.996Z,100931.94
2024-04-14T06:46:33.572Z,100938.38
2024-04-14T06:49:01.237Z,100941.44
2024-04-14T06:51:28.872Z,100941.97
2024-04-14T06:53:56.448Z,100938.31
2024-04-14T06:56:24.440Z,100943.78
2024-04-14T06:58:52.007Z,100932.00
2024-04-14T07:01:19.618Z,100934.41
2024-04-14T07:03:47.249Z,100931.03
2024-04-14T07:06:14.847Z,100928.88
2024-04-14T07:08:42.358Z,100936.44
2024-04-14T07:11:10.012Z,100928.88
2024-04-14T07:13:37.593Z,100927.97
2024-04-14T07:16:05.453Z,100924.31
2024-04-14T07:18:33.169Z,100923.00
2024-04-14T07:21:04.462Z,100907.50
2024-04-14T07:23:32.134Z,100901.63
2024-04-14T07:25:59.436Z,100907.66
2024-04-14T07:28:26.935Z,100903.91
2024-04-14T07:30:54.336Z,100917.50
2024-04-14T07:33:21.992Z,100915.31
2024-04-14T07:35:49.715Z,100921.13
2024-04-14T07:38:17.323Z,100907.69
2024-04-14T07:40:44.911Z,100907.31
2024-04-14T07:43:12.428Z,100910.84
2024-04-14T07:45:40.002Z,100907.19
2024-04-14T07:48:07.786Z,100908.69
2024-04-14T07:50:37.230Z,100904.28
2024-04-14T07:53:04.977Z,100908.56
2024-04-14T07:55:32.547Z,100900.22
2024-04-14T07:58:00.139Z,100901.47
2024-04-14T08:00:27.815Z,100911.97
2024-04-14T08:02:55.299Z,100899.41
2024-04-14T08:05:22.989Z,100898.75
2024-04-14T08:07:50.635Z,100901.97
2024-04-14T08:10:18.372Z,100901.63
2024-04-14T08:12:45.975Z,100903.03
2024-04-14T08:15:13.600Z,100904.56
2024-04-14T08:17:41.134Z,100894.81
2024-04-14T08:20:09.145Z,100890.59
2024-04-14T08:22:36.682Z,100889.19
2024-04-14T08:25:04.546Z,100886.69
2024-04-14T08:27:32.160Z,100891.72
2024-04-14T08:29:59.800Z,100886.78
2024-04-14T08:32:27.502Z,100889.53
2024-04-14T08:34:55.251Z,100894.16
2024-04-14T08:37:22.830Z,100900.94
2024-04-14T08:39:50.288Z,100892.34
2024-04-14T08:42:19.304Z,100893.72
2024-04-14T08:44:47.846Z,100885.47
2024-04-14T08:47:18.209Z,100885.88
2024-04-14T08:49:47.315Z,100887.59
2024-04-14T08:52:16.742Z,100888.03
2024-04-14T08:54:44.655Z,100882.09
2024-04-14T08:57:12.981Z,100873.84
2024-04-14T08:59:42.219Z,100866.88
2024-04-14T09:02:11.881Z,100873.97
2024-04-14T09:04:40.623Z,100880.22
2024-04-14T09:07:08.411Z,100878.16
2024-04-14T09:09:36.732Z,100881.94
2024-04-14T09:12:04.533Z,100873.53
2024-04-14T09:14:32.121Z,100872.53
2024-04-14T09:16:59.606Z,100875.16
2024-04-14T09:19:27.199Z,100866.75
2024-04-14T09:21:55.187Z,100860.53
2024-04-14T09:24:22.731Z,100867.41
2024-04-14T09:26:50.286Z,100866.28
2024-04-14T09:29:17.720Z,100859.81
2024-04-14T09:31:45.247Z,100856.88
2024-04-14T09:34:13.225Z,100852.34
2024-04-14T09:36:41.171Z,100857.41
2024-04-14T09:39:10.301Z,100847.31
2024-04-14T09:41:37.990Z,100846.41
2024-04-14T09:44:06.878Z,100839.56
2024-04-14T09:46:35.712Z,100840.25
2024-04-14T09:49:05.078Z,100831.09
2024-04-14T09:51:33.010Z,100837.31
2024-04-14T09:54:02.831Z,100823.56
2024-04-14T09:56:30.565Z,100827.19
2024-04-14T09:58:58.091Z,100822.78
2024-04-14T10:01:32.135Z,100815.78
2024-04-14T10:04:01.553Z,100807.16
2024-04-14T10:06:31.454Z,100806.38
2024-04-14T10:08:59.309Z,100815.16
2024-04-14T10:11:27.771Z,100810.38
2024-04-14T10:13:56.874Z,100803.47
2024-04-14T10:16:26.377Z,100804.88
2024-04-14T10:18:54.010Z,100804.19
2024-04-14T10:21:22.637Z,100795.06
2024-04-14T10:23:52.635Z,100795.31
2024-04-14T10:26:20.874Z,100781.81
2024-04-14T10:28:56.544Z,100776.78
2024-04-14T10:31:28.221Z,100781.78
2024-04-14T10:34:06.770Z,100769.31
2024-04-14T10:36:39.983Z,100768.94
2024-04-14T10:39:07.960Z,100763.88
2024-04-14T10:41:36.273Z,100759.94
2024-04-14T10:44:03.788Z,100764.03
2024-04-14T10:46:32.403Z,100763.25
2024-04-14T10:49:00.126Z,100751.41
2024-04-14T10:51:27.781Z,100753.84
2024-04-14T10:53:55.225Z,100753.38
2024-04-14T10:56:22.789Z,100739.34
2024-04-14T10:58:50.222Z,100738.91
2024-04-14T11:01:18.172Z,100738.81
2024-04-14T11:03:47.565Z,100731.75
2024-04-14T11:06:15.843Z,100739.16
2024-04-14T11:08:44.094Z,100727.13
2024-04-14T11:11:12.328Z,100733.59
2024-04-14T11:13:40.319Z,100717.25
2024-04-14T11:16:08.462Z,100709.28
2024-04-14T11:18:36.522Z,100713.16
2024-04-14T11:21:04.232Z,100705.56
2024-04-14T11:23:32.146Z,100703.13
2024-04-14T11:25:59.614Z,100699.16
2024-04-14T11:28:27.335Z,100697.91
2024-04-14T11:30:55.319Z,100694.00
2024-04-14T11:33:23.404Z,100690.59
2024-04-14T11:36:00.832Z,100691.22
2024-04-14T11:38:29.440Z,100682.56
2024-04-14T11:40:57.410Z,100679.22
2024-04-14T11:43:24.927Z,100669.88
2024-04-14T11:45:52.673Z,100675.78
2024-04-14T11:48:20.389Z,100669.63
2024-04-14T11:50:48.025Z,100676.38
2024-04-14T11:53:15.496Z,100658.72
2024-04-14T11:55:42.972Z,100656.09
2024-04-14T11:58:10.601Z,100651.94
2024-04-14T12:00:38.272Z,100643.22
2024-04-14T12:03:06.125Z,100637.31
2024-04-14T12:05:33.663Z,100635.94
2024-04-14T12:08:01.223Z,100629.59
2024-04-14T12:10:28.687Z,100637.88
2024-04-14T12:12:56.205Z,100632.28
2024-04-14T12:15:23.800Z,100622.00
2024-04-14T12:17:51.417Z,100611.22
2024-04-14T12:20:18.940Z,100612.38
2024-04-14T12:22:46.512Z,100611.88
2024-04-14T12:25:14.046Z,100601.66
2024-04-14T12:27:41.557Z,100593.41
2024-04-14T12:30:09.321Z,100580.66
2024-04-14T12:32:36.866Z,100583.50
2024-04-14T12:35:05.231Z,100577.94
2024-04-14T12:37:33.285Z,100577.56
2024-04-14T12:40:01.095Z,100567.75
2024-04-14T12:42:28.994Z,100570.88
2024-04-14T12:44:56.541Z,100568.41
2024-04-14T12:47:24.091Z,100567.75
2024-04-14T12:49:51.614Z,100558.63
2024-04-14T12:52:19.187Z,100560.97
2024-04-14T12:54:46.705Z,100556.03
2024-04-14T12:57:14.210Z,100566.38
2024-04-14T12:59:41.792Z,100551.00
2024-04-14T13:02:09.255Z,100550.59
2024-04-14T13:04:37.004Z,100538.75
2024-04-14T13:07:04.762Z,100540.56
2024-04-14T13:09:32.257Z,100534.31
2024-04-14T13:11:59.938Z,100537.03
2024-04-14T13:14:27.408Z,100523.31
2024-04-14T13:16:54.988Z,100519.81
2024-04-14T13:19:23.574Z,100520.72
2024-04-14T13:21:51.151Z,100522.28
2024-04-14T13:24:19.564Z,100509.66
2024-04-14T13:26:47.101Z,100505.75
2024-04-14T13:29:14.729Z,100505.84
2024-04-14T13:31:42.201Z,100507.03
2024-04-14T13:34:09.743Z,100507.06
2024-04-14T13:36:37.385Z,100498.41
2024-04-14T13:39:04.860Z,100484.25
2024-04-14T13:41:32.378Z,100501.72
2024-04-14T13:43:59.903Z,100497.75
2024-04-14T13:46:27.490Z,100496.59
2024-04-14T13:48:55.125Z,100489.19
2024-04-14T13:51:22.637Z,100488.84
2024-04-14T13:53:50.203Z,100486.38
2024-04-14T13:56:17.589Z,100478.22
2024-04-14T13:58:45.152Z,100489.56
2024-04-14T14:01:12.801Z,100485.47
2024-04-14T14:03:40.470Z,100495.22
2024-04-14T14:06:07.987Z,100481.91
2024-04-14T14:08:35.511Z,100477.56
2024-04-14T14:11:03.078Z,100482.72
2024-04-14T14:13:30.718Z,100479.91
2024-04-14T14:15:58.482Z,100483.81
2024-04-14T14:18:26.172Z,100477.84
2024-04-14T14:20:53.839Z,100476.09
2024-04-14T14:23:21.425Z,100476.53
2024-04-14T14:25:49.143Z,100476.75
2024-04-14T14:28:16.840Z,100470.34
2024-04-14T14:30:44.551Z,100472.13
2024-04-14T14:33:12.309Z,100466.13
2024-04-14T14:35:39.894Z,100467.00
2024-04-14T14:38:07.498Z,100472.75
2024-04-14T14:40:35.282Z,100462.50
2024-04-14T14:43:03.010Z,100465.13
2024-04-14T14:45:33.461Z,100466.59
2024-04-14T14:48:01.046Z,100460.84
2024-04-14T14:50:30.866Z,100461.09
2024-04-14T14:52:58.604Z,100461.88
2024-04-14T14:55:26.173Z,100454.03
2024-04-14T14:57:53.667Z,100451.66
2024-04-14T15:00:21.271Z,100453.63
2024-04-14T15:02:48.780Z,100448.16
2024-04-14T15:05:16.363Z,100442.31
2024-04-14T15:07:49.355Z,100446.88
2024-04-14T15:10:17.138Z,100446.94
2024-04-14T15:12:44.759Z,100447.06
2024-04-14T15:15:12.461Z,100444.53
2024-04-14T15:17:40.056Z,100437.72
2024-04-14T15:20:08.550Z,100440.78
2024-04-14T15:22:36.402Z,100441.09
2024-04-14T15:25:04.462Z,100444.28
2024-04-14T15:27:32.258Z,100440.44
2024-04-14T15:29:59.704Z,100444.84
2024-04-14T15:32:27.231Z,100443.19
2024-04-14T15:34:54.745Z,100438.38
2024-04-14T15:37:22.265Z,100440.38
2024-04-14T15:39:50.322Z,100430.56
2024-04-14T15:42:17.930Z,100437.72
2024-04-14T15:44:45.622Z,100446.25
2024-04-14T15:47:13.221Z,100442.94
2024-04-14T15:49:40.774Z,100438.94
2024-04-14T15:52:09.185Z,100436.63
2024-04-14T15:54:36.999Z,100431.88
2024-04-14T15:57:04.822Z,100427.63
2024-04-14T15:59:32.529Z,100436.47
2024-04-14T16:01:59.934Z,100437.09
2024-04-14T16:04:27.511Z,100432.84
2024-04-14T16:06:55.206Z,100435.91
2024-04-14T16:09:25.140Z,100429.41
2024-04-14T16:11:54.241Z,100430.50
2024-04-14T16:14:21.758Z,100422.78
2024-04-14T16:16:49.252Z,100431.41
2024-04-14T16:19:17.002Z,100434.72
2024-04-14T16:21:45.896Z,100420.72
2024-04-14T16:24:13.592Z,100426.78
2024-04-14T16:26:41.056Z,100424.50
2024-04-14T16:29:08.645Z,100419.66
2024-04-14T16:31:39.351Z,100422.72
2024-04-14T16:34:07.303Z,100419.81
2024-04-14T16:36:38.526Z,100419.66
2024-04-14T16:39:07.852Z,100418.53
2024-04-14T16:41:35.409Z,100415.41
2024-04-14T16:44:02.863Z,100415.34
2024-04-14T16:46:30.408Z,100418.59
2024-04-14T16:48:58.179Z,100418.22
2024-04-14T16:51:25.958Z,100410.69
2024-04-14T16:53:53.691Z,100414.22
2024-04-14T16:56:21.138Z,100414.63
2024-04-14T16:58:48.768Z,100418.16
2024-04-14T17:01:16.421Z,100421.25
2024-04-14T17:03:44.204Z,100425.00
2024-04-14T17:06:11.777Z,100426.69
2024-04-14T17:08:39.456Z,100419.97
2024-04-14T17:11:07.130Z,100423.16
2024-04-14T17:13:34.637Z,100419.34
2024-04-14T17:16:02.219Z,100423.97
2024-04-14T17:18:29.697Z,100425.63
2024-04-14T17:20:57.307Z,100416.81
2024-04-14T17:23:24.991Z,100415.28
2024-04-14T17:25:52.710Z,100418.41
2024-04-14T17:28:20.360Z,100423.72
2024-04-14T17:30:47.994Z,100425.91
2024-04-14T17:33:15.641Z,100420.44
2024-04-14T17:35:44.588Z,100420.28
2024-04-14T17:38:12.177Z,100418.44
2024-04-14T17:40:39.672Z,100422.81
2024-04-14T17:43:07.331Z,100426.13
2024-04-14T17:45:34.967Z,100431.00
2024-04-14T17:48:02.537Z,100431.13
2024-04-14T17:50:30.147Z,100429.94
2024-04-14T17:52:57.608Z,100428.06
2024-04-14T17:55:25.199Z,100432.22
2024-04-14T17:57:52.731Z,100434.09
2024-04-14T18:00:20.244Z,100433.75
2024-04-14T18:02:47.846Z,100436.31
2024-04-14T18:05:15.572Z,100432.78
2024-04-14T18:07:43.107Z,100443.63
2024-04-14T18:10:10.869Z,100439.75
2024-04-14T18:12:38.457Z,100442.53
2024-04-14T18:15:06.587Z,100441.28
2024-04-14T18:17:34.186Z,100443.06
2024-04-14T18:20:01.772Z,100443.00
2024-04-14T18:22:29.328Z,100444.41
2024-04-14T18:24:56.968Z,100440.72
2024-04-14T18:27:24.560Z,100452.31
2024-04-14T18:29:52.300Z,100446.78
2024-04-14T18:32:19.858Z,100453.84
2024-04-14T18:34:50.496Z,100443.06
2024-04-14T18:37:17.992Z,100456.75
2024-04-14T18:39:45.546Z,100459.13
2024-04-14T18:42:13.101Z,100454.31
2024-04-14T18:44:40.648Z,100452.84
2024-04-14T18:47:08.205Z,100461.28
2024-04-14T18:49:35.779Z,100459.88
2024-04-14T18:52:03.474Z,100451.59
2024-04-14T18:54:30.937Z,100456.69
2024-04-14T18:56:59.405Z,100455.31
2024-04-14T18:59:27.032Z,100454.63
2024-04-14T19:01:54.679Z,100456.44
2024-04-14T19:04:23.340Z,100458.97
2024-04-14T19:06:51.915Z,100459.56
2024-04-14T19:09:19.508Z,100453.19
2024-04-14T19:11:47.003Z,100449.13
2024-04-14T19:14:19.068Z,100455.63
2024-04-14T19:16:46.547Z,100455.19
2024-04-14T19:19:14.060Z,100450.19
2024-04-14T19:21:41.620Z,100450.53
2024-04-14T19:24:09.135Z,100448.84
2024-04-14T19:26:36.611Z,100446.53
2024-04-14T19:29:05.048Z,100448.72
2024-04-14T19:31:32.701Z,100437.38
2024-04-14T19:34:00.433Z,100448.94
2024-04-14T19:36:27.899Z,100450.44
2024-04-14T19:38:55.457Z,100443.97
2024-04-14T19:41:22.966Z,100445.78
2024-04-14T19:43:50.437Z,100447.72
2024-04-14T19:46:17.934Z,100445.75
2024-04-14T19:48:45.527Z,100447.56
2024-04-14T19:51:13.041Z,100450.59
2024-04-14T19:53:40.503Z,100445.16
2024-04-14T19:56:07.965Z,100446.44
2024-04-14T19:58:35.448Z,100440.72
2024-04-14T20:01:05.426Z,100439.84
2024-04-14T20:03:34.955Z,100441.06
2024-04-14T20:06:02.497Z,100440.59
2024-04-14T20:08:29.966Z,100434.75
2024-04-14T20:10:57.588Z,100433.28
2024-04-14T20:13:25.087Z,100438.50
2024-04-14T20:15:52.577Z,100433.75
2024-04-14T20:18:20.274Z,100435.25
2024-04-14T20:20:48.374Z,100430.97
2024-04-14T20:23:16.280Z,100432.31
2024-04-14T20:25:43.810Z,100439.28
2024-04-14T20:28:11.324Z,100434.50
2024-04-14T20:30:39.121Z,100431.25
2024-04-14T20:33:06.693Z,100430.88
2024-04-14T20:35:34.141Z,100431.88
2024-04-14T20:38:01.653Z,100438.25
2024-04-14T20:40:31.701Z,100432.88
2024-04-14T20:43:00.737Z,100431.25
2024-04-14T20:45:28.323Z,100430.59
2024-04-14T20:47:56.005Z,100429.00
2024-04-14T20:50:23.611Z,100437.88
2024-04-14T20:52:51.110Z,100434.56
2024-04-14T20:55:18.727Z,100437.44
2024-04-14T20:57:46.201Z,100426.16
2024-04-14T21:00:14.034Z,100429.38
2024-04-14T21:02:41.619Z,100429.78
2024-04-14T21:05:09.291Z,100433.25
2024-04-14T21:07:36.827Z,100423.56
2024-04-14T21:10:04.658Z,100424.38
2024-04-14T21:12:35.363Z,100418.53
2024-04-14T21:15:02.999Z,100415.38
2024-04-14T21:17:30.492Z,100410.88
2024-04-14T21:19:58.615Z,100406.22
2024-04-14T21:22:26.185Z,100416.16
2024-04-14T21:24:54.039Z,100417.53
2024-04-14T21:27:21.587Z,100416.81
2024-04-14T21:29:49.134Z,100421.59
2024-04-14T21:32:16.811Z,100425.78
2024-04-14T21:34:44.653Z,100426.13
2024-04-14T21:37:12.299Z,100422.38
2024-04-14T21:39:39.909Z,100428.50
2024-04-14T21:42:08.846Z,100421.19
2024-04-14T21:44:36.778Z,100414.94
2024-04-14T21:47:04.356Z,100408.91
2024-04-14T21:49:31.832Z,100403.97
2024-04-14T21:51:59.436Z,100407.88
2024-04-14T21:54:26.972Z,100403.56
2024-04-14T21:56:54.494Z,100395.44
2024-04-14T21:59:21.994Z,100397.41
2024-04-14T22:01:49.681Z,100391.81
2024-04-14T22:04:21.524Z,100388.22
2024-04-14T22:06:50.126Z,100390.81
2024-04-14T22:09:17.789Z,100398.47
2024-04-14T22:11:45.363Z,100388.56
2024-04-14T22:14:12.884Z,100384.28
2024-04-14T22:16:40.420Z,100381.06
2024-04-14T22:19:08.016Z,100383.78
2024-04-14T22:21:35.638Z,100392.53
2024-04-14T22:24:03.200Z,100393.97
2024-04-14T22:26:30.683Z,100394.78
2024-04-14T22:28:58.403Z,100394.16
2024-04-14T22:31:26.141Z,100386.16
2024-04-14T22:33:53.822Z,100389.66
2024-04-14T22:36:21.327Z,100382.50
2024-04-14T22:38:48.931Z,100382.03
2024-04-14T22:41:16.451Z,100364.69
2024-04-14T22:43:44.099Z,100371.34
2024-04-14T22:46:13.195Z,100364.50
2024-04-14T22:48:40.785Z,100370.53
2024-04-14T22:51:08.511Z,100365.44
2024-04-14T22:53:36.035Z,100369.41
2024-04-14T22:56:03.702Z,100368.59
2024-04-14T22:58:31.224Z,100364.94
2024-04-14T23:00:58.819Z,100367.34
2024-04-14T23:03:26.467Z,100369.69
2024-04-14T23:05:53.991Z,100361.38
2024-04-14T23:08:21.460Z,100367.06
2024-04-14T23:10:48.992Z,100364.78
2024-04-14T23:13:16.511Z,100365.44
2024-04-14T23:15:44.135Z,100362.22
2024-04-14T23:18:11.842Z,100359.69
2024-04-14T23:20:39.415Z,100366.78
2024-04-14T23:23:06.868Z,100353.25
2024-04-14T23:25:34.388Z,100352.31
2024-04-14T23:28:01.849Z,100368.75
2024-04-14T23:30:29.302Z,100364.13
2024-04-14T23:32:56.808Z,100368.53
2024-04-14T23:35:24.399Z,100365.53
2024-04-14T23:37:51.850Z,100361.66
2024-04-14T23:40:19.425Z,100360.06
2024-04-14T23:42:46.978Z,100369.97
2024-04-14T23:45:14.568Z,100365.66
2024-04-14T23:47:42.133Z,100356.91
2024-04-14T23:50:09.662Z,100362.53
2024-04-14T23:52:37.244Z,100360.72
2024-04-14T23:55:05.070Z,100359.63
2024-04-14T23:57:34.164Z,100359.28
